createdAt,value
2022-09-21T00:02:01.701Z,28.12
2022-09-21T00:04:52.469Z,28.14
2022-09-21T00:07:45.145Z,28.21
2022-09-21T00:10:35.900Z,28.26
2022-09-21T00:13:29.601Z,28.19
2022-09-21T00:16:19.764Z,28.31
2022-09-21T00:19:11.150Z,28.46
2022-09-21T00:22:01.501Z,28.55
2022-09-21T00:24:51.714Z,28.62
2022-09-21T00:27:41.796Z,28.77
2022-09-21T00:30:34.342Z,28.82
2022-09-21T00:33:25.071Z,28.92
2022-09-21T00:36:20.605Z,29.02
2022-09-21T00:39:12.240Z,29.02
2022-09-21T00:42:02.827Z,29.13
2022-09-21T00:44:53.996Z,29.19
2022-09-21T00:47:47.241Z,29.23
2022-09-21T00:50:44.122Z,29.30
2022-09-21T00:53:35.512Z,29.28
2022-09-21T00:56:26.089Z,29.28
2022-09-21T00:59:21.007Z,29.40
2022-09-21T01:02:13.069Z,29.32
2022-09-21T01:05:03.612Z,29.31
2022-09-21T01:07:54.723Z,29.29
2022-09-21T01:11:11.581Z,29.32
2022-09-21T01:14:42.614Z,29.36
2022-09-21T01:18:02.686Z,29.37
2022-09-21T01:21:12.811Z,29.45
2022-09-21T01:24:38.577Z,29.57
2022-09-21T01:28:11.700Z,29.67
2022-09-21T01:31:07.530Z,29.55
2022-09-21T01:34:01.482Z,29.61
2022-09-21T01:36:52.909Z,29.70
2022-09-21T01:39:45.890Z,29.79
2022-09-21T01:42:39.074Z,29.87
2022-09-21T01:45:39.401Z,29.82
2022-09-21T01:48:32.530Z,29.79
2022-09-21T01:51:23.422Z,29.87
2022-09-21T01:54:52.303Z,29.90
2022-09-21T01:57:58.332Z,29.81
2022-09-21T02:00:51.707Z,29.81
2022-09-21T02:03:46.049Z,29.84
2022-09-21T02:06:36.487Z,29.95
2022-09-21T02:09:26.635Z,29.99
2022-09-21T02:12:19.330Z,30.07
2022-09-21T02:15:09.668Z,30.16
2022-09-21T02:18:42.703Z,30.29
2022-09-21T02:21:39.143Z,30.33
2022-09-21T02:24:38.490Z,30.41
2022-09-21T02:27:43.967Z,30.48
2022-09-21T02:30:35.964Z,30.46
2022-09-21T02:33:33.812Z,30.50
2022-09-21T02:36:34.223Z,30.50
2022-09-21T02:39:35.357Z,30.59
2022-09-21T02:42:31.089Z,30.72
2022-09-21T02:45:28.030Z,30.71
2022-09-21T02:48:22.485Z,30.75
2022-09-21T02:51:19.190Z,30.85
2022-09-21T02:54:10.730Z,30.86
2022-09-21T02:57:03.119Z,30.89
2022-09-21T02:59:54.558Z,30.88
2022-09-21T03:02:47.202Z,31.02
2022-09-21T03:05:38.130Z,31.11
2022-09-21T03:08:28.834Z,31.14
2022-09-21T03:11:20.265Z,31.15
2022-09-21T03:14:10.552Z,31.23
2022-09-21T03:17:02.079Z,31.32
2022-09-21T03:19:57.267Z,31.38
2022-09-21T03:22:47.474Z,31.45
2022-09-21T03:25:38.414Z,31.49
2022-09-21T03:28:31.602Z,31.56
2022-09-21T03:31:22.156Z,31.60
2022-09-21T03:34:13.384Z,31.64
2022-09-21T03:37:05.439Z,31.73
2022-09-21T03:39:56.218Z,31.70
2022-09-21T03:42:46.843Z,31.72
2022-09-21T03:45:36.663Z,31.82
2022-09-21T03:48:27.293Z,31.87
2022-09-21T03:51:19.581Z,31.95
2022-09-21T03:54:09.685Z,31.86
2022-09-21T03:57:00.744Z,31.78
2022-09-21T03:59:51.107Z,31.77
2022-09-21T04:02:42.639Z,31.73
2022-09-21T04:05:34.990Z,31.82
2022-09-21T04:08:25.746Z,31.88
2022-09-21T04:11:18.827Z,31.88
2022-09-21T04:14:11.118Z,31.88
2022-09-21T04:17:01.993Z,31.89
2022-09-21T04:19:53.516Z,32.01
2022-09-21T04:22:46.711Z,32.07
2022-09-21T04:25:38.327Z,32.17
2022-09-21T04:28:28.629Z,32.20
2022-09-21T04:31:23.237Z,32.20
2022-09-21T04:34:15.703Z,32.37
2022-09-21T04:37:15.272Z,32.37
2022-09-21T04:40:10.434Z,32.35
2022-09-21T04:43:04.289Z,32.35
2022-09-21T04:45:57.744Z,32.48
2022-09-21T04:48:48.286Z,32.30
2022-09-21T04:51:38.971Z,32.38
2022-09-21T04:54:33.769Z,32.36
2022-09-21T04:57:26.136Z,32.35
2022-09-21T05:00:18.022Z,32.22
2022-09-21T05:03:10.109Z,32.18
2022-09-21T05:06:02.868Z,32.11
2022-09-21T05:09:12.017Z,31.97
2022-09-21T05:12:03.493Z,31.91
2022-09-21T05:14:53.909Z,32.09
2022-09-21T05:17:46.703Z,32.20
2022-09-21T05:20:37.361Z,32.22
2022-09-21T05:23:27.969Z,32.46
2022-09-21T05:26:19.386Z,32.57
2022-09-21T05:29:14.282Z,32.67
2022-09-21T05:32:37.332Z,32.68
2022-09-21T05:35:50.101Z,32.67
2022-09-21T05:38:42.809Z,32.89
2022-09-21T05:41:35.965Z,32.93
2022-09-21T05:44:27.152Z,32.95
2022-09-21T05:47:23.120Z,32.96
2022-09-21T05:50:30.551Z,33.04
2022-09-21T05:53:52.018Z,33.06
2022-09-21T05:56:59.011Z,33.13
2022-09-21T06:00:24.346Z,33.20
2022-09-21T06:03:22.035Z,33.20
2022-09-21T06:06:12.960Z,33.24
2022-09-21T06:09:04.662Z,33.30
2022-09-21T06:11:56.005Z,33.37
2022-09-21T06:14:54.757Z,33.42
2022-09-21T06:17:45.505Z,33.51
2022-09-21T06:20:37.868Z,33.50
2022-09-21T06:23:29.725Z,33.52
2022-09-21T06:26:20.868Z,33.47
2022-09-21T06:29:12.067Z,33.48
2022-09-21T06:32:07.406Z,33.42
2022-09-21T06:35:00.192Z,33.30
2022-09-21T06:37:52.032Z,33.10
2022-09-21T06:40:46.713Z,33.04
2022-09-21T06:43:38.637Z,32.79
2022-09-21T06:46:28.653Z,32.80
2022-09-21T06:49:18.577Z,32.78
2022-09-21T06:52:09.505Z,32.78
2022-09-21T06:55:03.487Z,32.69
2022-09-21T06:57:59.116Z,32.61
2022-09-21T07:00:51.219Z,32.61
2022-09-21T07:03:44.805Z,32.59
2022-09-21T07:06:37.397Z,32.50
2022-09-21T07:12:52.101Z,32.59
2022-09-21T07:15:44.022Z,32.61
2022-09-21T07:18:44.623Z,32.58
2022-09-21T07:21:36.587Z,32.55
2022-09-21T07:24:27.297Z,32.48
2022-09-21T07:27:22.749Z,32.45
2022-09-21T07:30:14.004Z,32.42
2022-09-21T07:33:06.366Z,32.30
2022-09-21T07:36:01.145Z,32.23
2022-09-21T07:38:52.726Z,32.22
2022-09-21T07:41:44.702Z,32.14
2022-09-21T07:44:35.816Z,32.06
2022-09-21T07:47:29.391Z,31.95
2022-09-21T07:50:20.099Z,31.92
2022-09-21T07:53:10.572Z,31.90
2022-09-21T07:56:15.977Z,31.79
2022-09-21T07:59:10.253Z,31.74
2022-09-21T08:02:01.850Z,31.65
2022-09-21T08:04:52.784Z,31.70
2022-09-21T08:07:42.735Z,31.71
2022-09-21T08:10:37.999Z,31.71
2022-09-21T08:13:27.701Z,31.70
2022-09-21T08:16:20.685Z,31.71
2022-09-21T08:19:12.119Z,31.60
2022-09-21T08:22:02.842Z,31.58
2022-09-21T08:24:56.636Z,31.48
2022-09-21T08:27:48.595Z,31.53
2022-09-21T08:30:42.149Z,31.47
2022-09-21T08:33:32.623Z,31.42
2022-09-21T08:36:26.537Z,31.43
2022-09-21T08:39:18.419Z,31.42
2022-09-21T08:42:42.364Z,31.44
2022-09-21T08:45:40.684Z,31.36
2022-09-21T08:48:37.595Z,31.37
2022-09-21T08:51:34.291Z,31.34
2022-09-21T08:54:42.596Z,31.39
2022-09-21T08:57:35.149Z,31.37
2022-09-21T09:00:26.299Z,31.26
2022-09-21T09:03:48.390Z,31.33
2022-09-21T09:06:43.626Z,31.24
2022-09-21T09:09:46.640Z,31.26
2022-09-21T09:12:46.224Z,31.22
2022-09-21T09:15:43.396Z,31.22
2022-09-21T09:18:50.537Z,31.22
2022-09-21T09:21:45.216Z,31.12
2022-09-21T09:24:44.198Z,31.17
2022-09-21T09:27:44.907Z,31.16
2022-09-21T09:30:37.987Z,31.14
2022-09-21T09:33:36.746Z,31.14
2022-09-21T09:36:57.227Z,31.02
2022-09-21T09:39:46.731Z,31.02
2022-09-21T09:42:44.741Z,30.98
2022-09-21T09:45:45.593Z,30.86
2022-09-21T09:49:07.853Z,30.97
2022-09-21T09:51:58.781Z,30.90
2022-09-21T09:54:52.139Z,30.92
2022-09-21T09:57:43.580Z,30.89
2022-09-21T10:00:34.599Z,30.84
2022-09-21T10:03:29.018Z,30.77
2022-09-21T10:06:35.987Z,30.57
2022-09-21T10:09:35.103Z,30.63
2022-09-21T10:12:29.438Z,30.61
2022-09-21T10:15:20.559Z,30.49
2022-09-21T10:18:18.980Z,30.52
2022-09-21T10:21:30.631Z,30.55
2022-09-21T10:24:29.038Z,30.54
2022-09-21T10:27:21.574Z,30.51
2022-09-21T10:30:31.618Z,30.54
2022-09-21T10:33:23.796Z,30.51
2022-09-21T10:36:35.314Z,30.55
2022-09-21T10:39:37.673Z,30.47
2022-09-21T10:42:29.498Z,30.47
2022-09-21T10:45:33.381Z,30.53
2022-09-21T10:48:26.080Z,30.53
2022-09-21T10:51:46.837Z,30.37
2022-09-21T10:54:42.659Z,30.49
2022-09-21T10:57:34.441Z,30.43
2022-09-21T11:00:30.694Z,30.49
2022-09-21T11:03:45.780Z,30.48
2022-09-21T11:06:43.806Z,30.53
2022-09-21T11:09:45.617Z,30.53
2022-09-21T11:13:01.867Z,30.61
2022-09-21T11:16:19.303Z,30.49
2022-09-21T11:19:40.240Z,30.46
2022-09-21T11:22:45.775Z,30.45
2022-09-21T11:25:56.587Z,30.44
2022-09-21T11:29:17.907Z,30.47
2022-09-21T11:32:28.674Z,30.47
2022-09-21T11:35:39.233Z,30.46
2022-09-21T11:38:34.369Z,30.43
2022-09-21T11:41:51.768Z,30.38
2022-09-21T11:45:02.158Z,30.43
2022-09-21T11:48:16.992Z,30.43
2022-09-21T11:51:41.210Z,30.41
2022-09-21T11:54:40.789Z,30.35
2022-09-21T11:57:56.262Z,30.38
2022-09-21T12:01:05.044Z,30.37
2022-09-21T12:04:19.432Z,30.37
2022-09-21T12:07:21.884Z,30.26
2022-09-21T12:10:32.482Z,30.43
2022-09-21T12:13:33.177Z,30.57
2022-09-21T12:16:36.379Z,30.60
2022-09-21T12:19:50.606Z,30.63
2022-09-21T12:22:48.186Z,30.63
2022-09-21T12:25:46.323Z,30.66
2022-09-21T12:28:55.090Z,30.72
2022-09-21T12:32:29.632Z,30.76
2022-09-21T12:35:42.796Z,30.75
2022-09-21T12:38:59.027Z,30.77
2022-09-21T12:42:03.812Z,30.75
2022-09-21T12:45:08.707Z,30.76
2022-09-21T12:48:27.185Z,30.73
2022-09-21T12:51:26.972Z,30.65
2022-09-21T12:54:31.941Z,30.69
2022-09-21T12:58:14.030Z,30.63
2022-09-21T13:01:11.091Z,30.64
2022-09-21T13:04:24.331Z,30.66
2022-09-21T13:07:34.313Z,30.65
2022-09-21T13:10:41.164Z,30.62
2022-09-21T13:13:41.275Z,30.66
2022-09-21T13:16:40.603Z,30.66
2022-09-21T13:19:34.648Z,30.62
2022-09-21T13:22:28.489Z,30.60
2022-09-21T13:25:29.518Z,30.61
2022-09-21T13:28:25.476Z,30.56
2022-09-21T13:31:39.524Z,30.52
2022-09-21T13:34:31.177Z,30.57
2022-09-21T13:37:23.650Z,30.60
2022-09-21T13:40:16.961Z,30.53
2022-09-21T13:43:20.008Z,30.56
2022-09-21T13:46:12.980Z,30.40
2022-09-21T13:49:13.382Z,30.45
2022-09-21T13:52:06.429Z,30.46
2022-09-21T13:55:01.111Z,30.46
2022-09-21T13:57:53.674Z,30.46
2022-09-21T14:00:53.411Z,30.45
2022-09-21T14:03:48.179Z,30.44
2022-09-21T14:06:47.649Z,30.47
2022-09-21T14:09:55.919Z,30.43
2022-09-21T14:12:46.618Z,30.42
2022-09-21T14:15:40.139Z,30.35
2022-09-21T14:18:40.594Z,30.40
2022-09-21T14:21:31.428Z,30.40
2022-09-21T14:24:25.479Z,30.36
2022-09-21T14:27:35.370Z,30.39
2022-09-21T14:30:32.292Z,30.35
2022-09-21T14:33:40.700Z,30.35
2022-09-21T14:36:42.911Z,30.31
2022-09-21T14:39:41.423Z,30.30
2022-09-21T14:42:33.444Z,30.29
2022-09-21T14:45:32.014Z,30.27
2022-09-21T14:48:44.668Z,30.30
2022-09-21T14:52:32.228Z,30.29
2022-09-21T14:56:01.783Z,30.28
2022-09-21T14:59:29.212Z,30.25
2022-09-21T15:02:27.968Z,30.17
2022-09-21T15:05:21.958Z,30.18
2022-09-21T15:08:48.583Z,30.19
2022-09-21T15:11:44.335Z,30.22
2022-09-21T15:14:44.895Z,30.18
2022-09-21T15:17:35.932Z,30.20
2022-09-21T15:20:26.969Z,30.19
2022-09-21T15:23:21.279Z,30.20
2022-09-21T15:26:23.618Z,30.23
2022-09-21T15:29:29.108Z,30.22
2022-09-21T15:32:41.970Z,30.23
2022-09-21T15:35:38.065Z,30.18
2022-09-21T15:38:35.134Z,30.16
2022-09-21T15:41:47.109Z,30.19
2022-09-21T15:44:39.017Z,30.12
2022-09-21T15:47:29.914Z,30.13
2022-09-21T15:50:22.917Z,30.13
2022-09-21T15:53:28.396Z,30.14
2022-09-21T15:56:27.249Z,30.10
2022-09-21T15:59:22.219Z,30.11
2022-09-21T16:02:15.116Z,30.08
2022-09-21T16:05:07.711Z,30.06
2022-09-21T16:08:19.003Z,30.15
2022-09-21T16:11:34.167Z,30.24
2022-09-21T16:14:45.131Z,30.23
2022-09-21T16:17:40.568Z,30.23
2022-09-21T16:20:42.662Z,30.15
2022-09-21T16:23:32.625Z,30.14
2022-09-21T16:26:34.014Z,30.19
2022-09-21T16:29:27.850Z,30.17
2022-09-21T16:32:21.246Z,30.14
2022-09-21T16:35:32.937Z,30.13
2022-09-21T16:38:25.465Z,30.03
2022-09-21T16:41:19.060Z,30.01
2022-09-21T16:44:35.916Z,29.95
2022-09-21T16:47:29.084Z,29.95
2022-09-21T16:50:20.476Z,29.91
2022-09-21T16:53:10.908Z,29.89
2022-09-21T16:56:02.364Z,29.84
2022-09-21T16:58:52.362Z,29.84
2022-09-21T17:01:42.625Z,29.80
2022-09-21T17:04:35.472Z,29.78
2022-09-21T17:07:27.933Z,29.81
2022-09-21T17:10:19.942Z,29.78
2022-09-21T17:13:10.652Z,29.74
2022-09-21T17:16:01.445Z,29.73
2022-09-21T17:18:52.136Z,29.72
2022-09-21T17:21:42.480Z,29.72
2022-09-21T17:24:49.922Z,29.71
2022-09-21T17:27:41.837Z,29.68
2022-09-21T17:30:31.697Z,29.66
2022-09-21T17:33:22.977Z,29.66
2022-09-21T17:36:17.702Z,29.65
2022-09-21T17:39:08.894Z,29.65
2022-09-21T17:42:05.949Z,29.63
2022-09-21T17:45:06.535Z,29.62
2022-09-21T17:47:56.872Z,29.62
2022-09-21T17:50:47.476Z,29.61
2022-09-21T17:53:43.167Z,29.62
2022-09-21T17:56:50.026Z,29.60
2022-09-21T17:59:44.016Z,29.51
2022-09-21T18:02:34.574Z,29.36
2022-09-21T18:05:27.769Z,29.24
2022-09-21T18:08:17.856Z,29.18
2022-09-21T18:11:26.508Z,29.19
2022-09-21T18:14:49.422Z,29.16
2022-09-21T18:17:59.839Z,29.11
2022-09-21T18:21:20.157Z,29.00
2022-09-21T18:24:31.242Z,29.06
2022-09-21T18:27:26.175Z,29.01
2022-09-21T18:30:18.911Z,28.99
2022-09-21T18:33:44.184Z,29.06
2022-09-21T18:36:42.667Z,28.96
2022-09-21T18:39:47.488Z,28.95
2022-09-21T18:43:00.518Z,28.99
2022-09-21T18:46:14.783Z,28.92
2022-09-21T18:49:36.212Z,28.93
2022-09-21T18:52:35.115Z,28.87
2022-09-21T18:55:34.547Z,28.91
2022-09-21T18:58:27.799Z,28.86
2022-09-21T19:01:20.272Z,28.87
2022-09-21T19:04:11.784Z,28.86
2022-09-21T19:07:13.053Z,28.85
2022-09-21T19:10:09.624Z,28.83
2022-09-21T19:13:34.956Z,28.86
2022-09-21T19:16:30.612Z,28.85
2022-09-21T19:19:31.982Z,28.83
2022-09-21T19:23:07.627Z,28.89
2022-09-21T19:26:05.612Z,28.83
2022-09-21T19:29:20.347Z,28.83
2022-09-21T19:32:19.345Z,28.76
2022-09-21T19:35:32.855Z,28.79
2022-09-21T19:38:22.929Z,28.77
2022-09-21T19:41:33.377Z,28.78
2022-09-21T19:44:49.463Z,28.73
2022-09-21T19:48:04.666Z,28.72
2022-09-21T19:51:00.275Z,28.70
2022-09-21T19:54:15.003Z,28.70
2022-09-21T19:57:35.095Z,28.68
2022-09-21T20:00:25.672Z,28.65
2022-09-21T20:03:28.058Z,28.64
2022-09-21T20:06:48.782Z,28.64
2022-09-21T20:09:46.123Z,28.65
2022-09-21T20:12:51.915Z,28.64
2022-09-21T20:15:58.513Z,28.62
2022-09-21T20:19:22.589Z,28.62
2022-09-21T20:22:21.608Z,28.58
2022-09-21T20:25:17.774Z,28.53
2022-09-21T20:28:11.369Z,28.57
2022-09-21T20:31:01.040Z,28.52
2022-09-21T20:33:50.841Z,28.49
2022-09-21T20:36:41.182Z,28.51
2022-09-21T20:39:31.358Z,28.50
2022-09-21T20:42:26.213Z,28.55
2022-09-21T20:45:16.625Z,28.52
2022-09-21T20:48:16.359Z,28.52
2022-09-21T20:51:07.640Z,28.52
2022-09-21T20:53:57.688Z,28.50
2022-09-21T20:56:47.843Z,28.49
2022-09-21T20:59:37.753Z,28.48
2022-09-21T21:02:31.187Z,28.45
2022-09-21T21:05:21.663Z,28.46
2022-09-21T21:08:11.435Z,28.47
2022-09-21T21:11:02.096Z,28.42
2022-09-21T21:13:52.019Z,28.42
2022-09-21T21:16:42.117Z,28.41
2022-09-21T21:19:32.665Z,28.44
2022-09-21T21:22:22.831Z,28.42
2022-09-21T21:25:13.205Z,28.44
2022-09-21T21:28:02.730Z,28.38
2022-09-21T21:30:56.194Z,28.39
2022-09-21T21:33:45.724Z,28.39
2022-09-21T21:36:35.992Z,28.38
2022-09-21T21:39:26.505Z,28.40
2022-09-21T21:42:29.729Z,28.38
2022-09-21T21:45:22.244Z,28.36
2022-09-21T21:48:12.000Z,28.36
2022-09-21T21:51:04.236Z,28.37
2022-09-21T21:53:54.176Z,28.34
2022-09-21T21:56:44.049Z,28.34
2022-09-21T21:59:34.630Z,28.32
2022-09-21T22:02:25.381Z,28.31
2022-09-21T22:05:16.019Z,28.29
2022-09-21T22:08:07.955Z,28.26
2022-09-21T22:10:58.313Z,28.27
2022-09-21T22:13:48.552Z,28.29
2022-09-21T22:16:39.844Z,28.29
2022-09-21T22:19:30.720Z,28.27
2022-09-21T22:22:20.932Z,28.26
2022-09-21T22:25:11.321Z,28.26
2022-09-21T22:28:02.220Z,28.28
2022-09-21T22:30:52.994Z,28.29
2022-09-21T22:33:43.130Z,28.28
2022-09-21T22:36:37.570Z,28.27
2022-09-21T22:39:30.760Z,28.26
2022-09-21T22:42:20.604Z,28.26
2022-09-21T22:45:11.265Z,28.28
2022-09-21T22:48:01.653Z,28.28
2022-09-21T22:50:51.588Z,28.25
2022-09-21T22:53:44.653Z,28.28
2022-09-21T22:56:35.677Z,28.23
2022-09-21T22:59:26.072Z,28.27
2022-09-21T23:02:17.299Z,28.24
2022-09-21T23:05:11.045Z,28.24
2022-09-21T23:08:01.084Z,28.26
2022-09-21T23:10:50.936Z,28.26
2022-09-21T23:13:41.105Z,28.30
2022-09-21T23:16:32.572Z,28.26
2022-09-21T23:19:22.789Z,28.28
2022-09-21T23:22:12.996Z,28.26
2022-09-21T23:25:03.893Z,28.27
2022-09-21T23:27:53.778Z,28.27
2022-09-21T23:30:44.074Z,28.30
2022-09-21T23:33:45.894Z,28.28
2022-09-21T23:36:36.929Z,28.33
2022-09-21T23:39:27.084Z,28.37
2022-09-21T23:42:17.031Z,28.33
2022-09-21T23:45:10.235Z,28.35
2022-09-21T23:48:00.357Z,28.36
2022-09-21T23:50:52.490Z,28.43
2022-09-21T23:53:42.772Z,28.41
2022-09-21T23:56:33.962Z,28.43
2022-09-21T23:59:24.950Z,28.51
